Time;durP1;ratioP1;P1;durP2;ratioP2;P2;SDS_P1;SDS_P2;PMS_P1;PMS_P2;Temp;Humidity;BMP_temperature;BMP_pressure;BME280_temperature;BME280_humidity;BME280_pressure;Samples;Min_cycle;Max_cycle;Signal;HPM_P1;HPM_P2
2022/01/19 00:00:17;;;;;;;24.40;15.83;;;;;;;3.59;100.00;103270.88;5035406;28;21041;-83
2022/01/19 00:02:43;;;;;;;25.33;16.43;;;;;;;3.02;100.00;103154.09;5035967;28;20306;-78
2022/01/19 00:05:11;;;;;;;26.10;16.97;;;;;;;3.58;100.00;103224.03;5035309;28;20734;-80
2022/01/19 00:07:37;;;;;;;26.60;16.80;;;;;;;4.38;100.00;103341.22;5034781;28;20654;-84
2022/01/19 00:10:09;;;;;;;30.93;18.53;;;;;;;3.68;100.00;103304.81;5032249;28;20917;-82
2022/01/19 00:12:35;;;;;;;33.10;17.80;;;;;;;3.79;100.00;103262.53;5035321;28;20962;-84
2022/01/19 00:15:01;;;;;;;31.70;18.60;;;;;;;3.89;100.00;103285.84;5019641;28;20924;-84
2022/01/19 00:17:26;;;;;;;33.67;19.70;;;;;;;3.97;100.00;103280.94;5016644;28;20499;-85
2022/01/19 00:19:52;;;;;;;29.60;18.43;;;;;;;3.35;100.00;103239.53;5036459;28;20679;-79
2022/01/19 00:22:23;;;;;;;38.00;21.63;;;;;;;3.53;100.00;103242.03;5036705;28;20184;-86
2022/01/19 00:24:48;;;;;;;31.93;18.70;;;;;;;3.19;100.00;103201.66;5023814;28;20196;-86
2022/01/19 00:27:14;;;;;;;29.57;17.70;;;;;;;2.84;100.00;103162.19;5017521;28;20454;-84
2022/01/19 00:29:39;;;;;;;32.80;18.73;;;;;;;3.52;100.00;103272.19;5036376;28;20212;-84
2022/01/19 00:32:05;;;;;;;29.33;18.03;;;;;;;4.02;100.00;103326.63;5033639;28;20210;-86
2022/01/19 00:34:30;;;;;;;31.80;19.03;;;;;;;3.98;100.00;103317.16;5005608;28;20226;-87
2022/01/19 00:36:56;;;;;;;33.53;19.70;;;;;;;3.15;100.00;103147.94;5015805;28;20246;-83
2022/01/19 00:39:24;;;;;;;31.47;18.60;;;;;;;3.65;100.00;103273.16;5033356;28;20181;-80
2022/01/19 00:41:52;;;;;;;32.30;19.10;;;;;;;3.15;100.00;103158.56;5034365;28;20190;-80
2022/01/19 00:44:18;;;;;;;28.33;16.50;;;;;;;3.60;100.00;103208.88;5020230;28;21083;-86
2022/01/19 00:46:43;;;;;;;29.57;19.07;;;;;;;3.28;100.00;103148.03;5018634;28;20474;-84
2022/01/19 00:49:09;;;;;;;30.33;18.90;;;;;;;3.56;100.00;103167.56;5037005;28;20271;-83
2022/01/19 00:51:37;;;;;;;34.23;19.10;;;;;;;3.04;100.00;103086.75;5035130;28;20184;-80
2022/01/19 00:54:03;;;;;;;30.93;20.20;;;;;;;3.34;100.00;103136.19;5035502;28;20195;-86
2022/01/19 00:56:28;;;;;;;36.13;21.73;;;;;;;2.84;100.00;103064.13;5014972;28;20481;-79
2022/01/19 00:58:56;;;;;;;30.50;19.80;;;;;;;3.27;100.00;103105.69;5035564;28;20259;-88
2022/01/19 01:01:22;;;;;;;34.77;20.57;;;;;;;3.64;100.00;103165.25;5033326;28;20189;-84
2022/01/19 01:03:50;;;;;;;30.23;19.33;;;;;;;3.61;100.00;103200.81;5036843;28;20434;-78
2022/01/19 01:06:16;;;;;;;34.00;20.00;;;;;;;3.83;100.00;103195.00;5034784;28;20200;-82
2022/01/19 01:08:43;;;;;;;33.00;20.17;;;;;;;3.88;100.00;103193.84;5034915;28;21053;-88
2022/01/19 01:11:08;;;;;;;33.60;20.30;;;;;;;3.74;100.00;103210.69;5017309;28;20195;-85
2022/01/19 01:16:32;;;;;;;34.60;20.97;;;;;;;2.93;100.00;103050.31;5032898;28;20742;-86
2022/01/19 01:18:58;;;;;;;31.10;20.53;;;;;;;3.64;100.00;103141.38;5017997;28;20999;-89
2022/01/19 01:21:27;;;;;;;35.27;22.27;;;;;;;3.95;100.00;103168.63;5034925;28;20502;-79
2022/01/19 01:23:55;;;;;;;33.63;20.70;;;;;;;3.79;100.00;103137.75;5030862;28;20422;-85
2022/01/19 01:26:24;;;;;;;39.93;24.77;;;;;;;3.26;100.00;103049.13;5035945;28;20810;-86
2022/01/19 01:28:49;;;;;;;44.87;25.10;;;;;;;3.05;100.00;102992.16;5018554;28;20438;-86
2022/01/19 01:31:18;;;;;;;49.50;25.30;;;;;;;3.22;100.00;103022.91;5005999;28;20881;-80
2022/01/19 01:33:44;;;;;;;40.70;24.50;;;;;;;3.83;100.00;103078.19;5032588;28;20649;-83
2022/01/19 01:36:10;;;;;;;44.40;26.83;;;;;;;3.71;100.00;103105.53;5014841;28;20512;-84
2022/01/19 01:38:37;;;;;;;48.13;25.57;;;;;;;3.25;100.00;103022.72;5019308;28;20205;-83
2022/01/19 01:41:03;;;;;;;60.53;27.83;;;;;;;3.73;100.00;103103.66;5029803;28;20472;-84
2022/01/19 01:43:29;;;;;;;49.13;28.67;;;;;;;3.72;100.00;103098.44;5033589;28;20435;-84
2022/01/19 01:46:01;;;;;;;51.17;28.43;;;;;;;4.01;100.00;103102.69;5016437;28;20457;-84
2022/01/19 01:48:27;;;;;;;55.20;28.93;;;;;;;3.38;100.00;102981.19;5017894;28;20195;-83
2022/01/19 01:53:37;;;;;;;55.57;30.13;;;;;;;3.80;100.00;103043.88;5035339;28;20413;-80
2022/01/19 01:56:09;;;;;;;62.50;31.77;;;;;;;3.94;100.00;103047.44;5031961;28;20470;-86
2022/01/19 01:58:37;;;;;;;56.10;30.57;;;;;;;3.33;100.00;102954.97;5016153;28;20451;-82
2022/01/19 02:01:04;;;;;;;64.17;31.90;;;;;;;3.49;100.00;103005.22;5016988;28;20422;-85
2022/01/19 02:03:37;;;;;;;62.80;30.67;;;;;;;3.64;100.00;103006.03;5014892;28;20430;-86
2022/01/19 02:08:45;;;;;;;69.37;33.73;;;;;;;3.79;100.00;103020.09;5032606;28;20410;-84
2022/01/19 02:16:50;;;;;;;60.70;31.80;;;;;;;3.61;100.00;103048.69;5032435;28;20478;-85
2022/01/19 02:22:03;;;;;;;59.07;30.40;;;;;;;3.61;100.00;103043.38;5032703;28;20437;-81
2022/01/19 02:24:52;;;;;;;62.10;31.67;;;;;;;3.12;100.00;102959.84;5032576;28;20418;-79
2022/01/19 02:40:56;;;;;;;61.50;31.07;;;;;;;3.35;100.00;102942.44;5034413;28;21086;-79
2022/01/19 02:43:28;;;;;;;62.37;30.87;;;;;;;2.55;100.00;102808.91;5031450;28;20919;-79
2022/01/19 02:51:25;;;;;;;62.13;31.10;;;;;;;2.99;100.00;102865.28;5031222;28;20469;-82
2022/01/19 02:53:51;;;;;;;71.83;32.67;;;;;;;3.48;100.00;102958.41;5034810;28;20755;-84
2022/01/19 02:56:30;;;;;;;64.40;31.40;;;;;;;2.62;100.00;102783.72;5015413;28;20499;-82
2022/01/19 02:59:26;;;;;;;63.07;31.63;;;;;;;3.42;100.00;102921.69;5028434;28;20307;-79
2022/01/19 03:10:05;;;;;;;60.93;29.57;;;;;;;2.47;100.00;102719.31;5033118;28;20536;-86
2022/01/19 03:12:37;;;;;;;49.60;25.80;;;;;;;3.24;100.00;102816.78;5019371;28;20474;-83
2022/01/19 03:15:03;;;;;;;51.57;25.70;;;;;;;3.54;100.00;102896.13;5023845;28;20428;-79
2022/01/19 03:17:28;;;;;;;52.87;26.80;;;;;;;3.09;100.00;102802.75;5033934;28;20455;-80
2022/01/19 03:20:06;;;;;;;54.40;26.13;;;;;;;3.35;100.00;102844.28;5020718;28;20952;-80
2022/01/19 03:22:40;;;;;;;44.57;24.90;;;;;;;3.01;100.00;102762.63;5018608;28;20198;-83
2022/01/19 03:27:45;;;;;;;43.00;23.50;;;;;;;3.50;100.00;102837.13;5023205;28;20477;-71
2022/01/19 03:30:12;;;;;;;41.70;22.70;;;;;;;3.80;100.00;102847.44;5034581;28;20419;-71
2022/01/19 03:32:37;;;;;;;45.30;22.87;;;;;;;3.55;100.00;102807.59;5020426;28;20619;-72
2022/01/19 03:35:03;;;;;;;40.03;21.07;;;;;;;3.95;100.00;102856.16;5038996;28;20449;-75
2022/01/19 03:37:28;;;;;;;38.70;22.17;;;;;;;3.93;100.00;102862.53;5017729;28;20296;-74
2022/01/19 03:39:54;;;;;;;40.77;22.13;;;;;;;3.55;100.00;102765.16;5017471;28;20419;-75
2022/01/19 03:42:19;;;;;;;44.73;20.97;;;;;;;4.11;100.00;102842.69;5016615;28;20639;-73
2022/01/19 03:44:44;;;;;;;46.90;22.43;;;;;;;3.55;100.00;102770.47;4994649;28;20181;-72
2022/01/19 03:47:10;;;;;;;35.97;21.10;;;;;;;3.63;100.00;102755.72;5016982;28;20201;-73
2022/01/19 03:49:35;;;;;;;52.87;23.13;;;;;;;4.05;100.00;102820.06;5017166;28;21327;-72
2022/01/19 03:52:04;;;;;;;49.47;22.50;;;;;;;4.04;100.00;102814.84;5016533;28;20187;-72
2022/01/19 03:54:38;;;;;;;46.73;21.33;;;;;;;4.07;100.00;102810.16;5015254;28;20701;-73
2022/01/19 03:57:04;;;;;;;44.57;21.00;;;;;;;4.14;100.00;102804.41;5018597;28;20435;-72
2022/01/19 03:59:29;;;;;;;35.83;22.70;;;;;;;4.14;100.00;102845.13;5017813;28;20422;-72
2022/01/19 04:01:57;;;;;;;42.93;21.70;;;;;;;4.19;100.00;102794.31;5017875;28;20801;-74
2022/01/19 04:07:02;;;;;;;45.93;21.67;;;;;;;3.69;100.00;102754.44;5018433;28;20466;-72
2022/01/19 04:09:30;;;;;;;41.30;21.80;;;;;;;4.09;100.00;102778.19;4989874;28;20455;-72
2022/01/19 04:11:56;;;;;;;35.77;20.90;;;;;;;3.80;100.00;102753.69;5016975;28;20421;-72
2022/01/19 04:14:22;;;;;;;34.93;19.83;;;;;;;3.84;100.00;102761.31;5016601;28;20444;-75
2022/01/19 04:17:01;;;;;;;36.67;19.70;;;;;;;3.63;100.00;102717.72;5016470;28;20449;-72
2022/01/19 04:19:33;;;;;;;41.57;22.00;;;;;;;3.88;100.00;102771.72;5016706;28;20204;-74
2022/01/19 04:22:03;;;;;;;36.30;22.50;;;;;;;3.81;100.00;102777.47;5017424;28;20533;-72
2022/01/19 04:24:28;;;;;;;34.67;21.90;;;;;;;3.91;100.00;102782.16;5017093;28;20485;-72
2022/01/19 04:29:40;;;;;;;45.20;25.70;;;;;;;3.73;100.00;102797.53;5014876;28;20218;-71
2022/01/19 04:32:11;;;;;;;42.30;22.40;;;;;;;3.94;100.00;102789.91;5016470;28;20794;-75
2022/01/19 04:34:38;;;;;;;48.43;22.80;;;;;;;3.51;100.00;102718.56;5017081;28;20408;-74
2022/01/19 05:06:42;;;;;;;39.77;22.40;;;;;;;3.84;100.00;102699.41;5015780;28;20455;-74
2022/01/19 05:09:59;;;;;;;42.73;22.83;;;;;;;3.80;100.00;102682.03;5015058;28;20420;-75
2022/01/19 05:14:37;;;;;;;50.57;23.77;;;;;;;4.02;100.00;102730.00;5017039;28;20534;-75
2022/01/19 05:17:02;;;;;;;39.13;23.90;;;;;;;4.03;100.00;102721.06;5017504;28;20478;-75
2022/01/19 05:19:28;;;;;;;46.40;24.67;;;;;;;3.63;100.00;102648.72;5016902;28;20188;-75
2022/01/19 05:21:53;;;;;;;40.70;25.73;;;;;;;3.08;100.00;102573.03;5016163;28;20649;-75
2022/01/19 05:24:18;;;;;;;46.40;25.97;;;;;;;3.88;100.00;102687.63;5016027;28;20189;-75
2022/01/19 05:26:45;;;;;;;43.53;25.40;;;;;;;4.00;100.00;102729.25;5016937;28;20342;-74
2022/01/19 05:29:11;;;;;;;49.90;26.13;;;;;;;4.26;100.00;102745.97;5017522;28;20180;-75
2022/01/19 05:31:36;;;;;;;46.60;24.97;;;;;;;4.41;100.00;102759.09;5017833;28;20793;-75
2022/01/19 05:34:02;;;;;;;39.80;23.57;;;;;;;2.90;100.00;102541.56;5016956;28;20184;-75
2022/01/19 05:36:27;;;;;;;39.13;23.70;;;;;;;4.19;100.00;102702.19;5016060;28;20235;-75
2022/01/19 05:38:53;;;;;;;47.70;24.03;;;;;;;3.64;100.00;102626.53;5011959;28;20678;-74
2022/01/19 05:41:20;;;;;;;44.90;24.43;;;;;;;3.84;100.00;102619.78;5014899;28;20678;-75
2022/01/19 05:43:45;;;;;;;44.40;25.17;;;;;;;3.75;100.00;102607.19;5015994;28;20262;-75
2022/01/19 05:46:10;;;;;;;40.17;24.60;;;;;;;4.13;100.00;102665.44;5014802;28;20550;-75
2022/01/19 05:48:36;;;;;;;39.47;23.80;;;;;;;3.74;100.00;102590.41;5016949;28;20673;-75
2022/01/19 05:51:01;;;;;;;45.67;24.90;;;;;;;4.22;100.00;102691.38;5014742;28;20236;-74
2022/01/19 05:53:26;;;;;;;36.37;25.30;;;;;;;4.16;100.00;102637.81;5015484;28;20176;-75
2022/01/19 05:55:52;;;;;;;42.17;25.27;;;;;;;4.03;100.00;102604.22;5013238;28;20212;-75
2022/01/19 05:58:17;;;;;;;46.93;24.37;;;;;;;2.60;100.00;102382.91;5016663;28;20200;-75
2022/01/19 06:00:43;;;;;;;41.67;24.70;;;;;;;4.40;100.00;102683.00;5016408;28;20216;-75
2022/01/19 06:03:08;;;;;;;37.03;24.50;;;;;;;2.51;100.00;102394.16;5014950;28;20721;-75
2022/01/19 06:05:34;;;;;;;36.13;23.73;;;;;;;4.08;100.00;102623.31;4998271;28;20283;-75
2022/01/19 06:08:12;;;;;;;46.47;25.73;;;;;;;4.15;100.00;102674.16;5016487;28;20184;-73
2022/01/19 06:10:43;;;;;;;43.27;26.40;;;;;;;3.98;100.00;102616.97;5015705;28;20260;-75
2022/01/19 06:13:09;;;;;;;45.87;25.87;;;;;;;4.45;100.00;102655.09;5012421;28;20569;-75
2022/01/19 06:15:34;;;;;;;40.37;25.43;;;;;;;3.52;100.00;102522.13;5005601;28;20951;-74
2022/01/19 06:18:00;;;;;;;49.17;27.43;;;;;;;3.53;100.00;102518.53;5015191;28;20780;-75
2022/01/19 06:20:25;;;;;;;49.40;25.50;;;;;;;4.21;100.00;102652.47;5013103;28;20704;-73
2022/01/19 06:22:52;;;;;;;42.47;25.67;;;;;;;4.33;100.00;102648.06;5013806;28;20200;-74
2022/01/19 06:25:17;;;;;;;45.40;25.50;;;;;;;3.57;100.00;102537.72;5013190;28;20173;-73
2022/01/19 06:27:43;;;;;;;48.40;28.00;;;;;;;3.60;100.00;102530.38;5016161;28;20411;-72
2022/01/19 06:30:09;;;;;;;39.60;25.87;;;;;;;3.92;100.00;102548.41;5015832;28;20226;-74
2022/01/19 06:32:34;;;;;;;40.43;25.63;;;;;;;3.36;100.00;102479.94;5014552;28;20195;-75
2022/01/19 06:34:59;;;;;;;44.83;26.70;;;;;;;2.61;100.00;102357.28;5015451;28;20279;-73
2022/01/19 06:37:25;;;;;;;42.37;26.23;;;;;;;2.29;100.00;102336.59;5015452;28;20212;-72
2022/01/19 06:39:52;;;;;;;39.63;25.87;;;;;;;3.73;100.00;102553.34;5014316;28;20189;-73
2022/01/19 06:42:17;;;;;;;44.30;27.27;;;;;;;3.68;100.00;102528.97;5014712;28;20185;-73
2022/01/19 06:44:43;;;;;;;54.33;28.27;;;;;;;3.59;100.00;102511.94;5015210;28;20493;-73
2022/01/19 06:47:08;;;;;;;44.57;27.37;;;;;;;3.35;100.00;102456.19;5013904;28;20200;-74
2022/01/19 06:49:33;;;;;;;44.50;26.70;;;;;;;4.03;100.00;102575.00;5017717;28;20184;-72
2022/01/19 06:51:59;;;;;;;39.57;26.37;;;;;;;4.11;100.00;102573.56;5020486;28;20199;-73
2022/01/19 06:54:25;;;;;;;42.93;28.07;;;;;;;4.03;100.00;102523.72;5017563;28;20181;-75
2022/01/19 06:56:50;;;;;;;41.97;27.40;;;;;;;3.61;100.00;102436.53;5019534;28;20955;-75
2022/01/19 06:59:16;;;;;;;37.60;24.10;;;;;;;4.24;100.00;102532.72;5019535;28;20246;-75
2022/01/19 07:01:41;;;;;;;42.43;27.10;;;;;;;3.80;100.00;102473.16;5020503;28;20637;-75
2022/01/19 07:04:07;;;;;;;45.70;27.80;;;;;;;3.66;100.00;102436.19;5017954;28;20181;-76
2022/01/19 07:06:32;;;;;;;44.97;27.43;;;;;;;3.76;100.00;102474.38;5015782;28;20205;-74
2022/01/19 07:08:58;;;;;;;34.30;23.47;;;;;;;3.82;100.00;102451.84;5018030;28;20268;-75
2022/01/19 07:11:23;;;;;;;44.93;27.20;;;;;;;2.18;100.00;102178.50;5018384;28;20942;-75
2022/01/19 07:13:49;;;;;;;45.73;28.00;;;;;;;3.59;100.00;102413.75;5017715;28;20215;-72
2022/01/19 07:16:16;;;;;;;45.53;26.80;;;;;;;4.26;100.00;102529.94;5017852;28;20239;-74
2022/01/19 07:18:42;;;;;;;42.10;25.97;;;;;;;4.18;100.00;102537.66;5016201;28;20262;-74
2022/01/19 07:21:07;;;;;;;43.53;28.60;;;;;;;3.82;100.00;102438.56;4999682;28;20600;-74
2022/01/19 07:23:32;;;;;;;44.90;28.83;;;;;;;4.15;100.00;102508.66;5019615;28;20189;-74
2022/01/19 07:25:58;;;;;;;37.70;24.80;;;;;;;2.96;100.00;102304.38;5016569;28;20717;-75
2022/01/19 07:28:23;;;;;;;40.93;27.00;;;;;;;3.33;100.00;102408.56;5019369;28;20184;-74
2022/01/19 07:30:49;;;;;;;39.90;26.87;;;;;;;1.99;100.00;102178.94;5016789;28;20217;-74
2022/01/19 07:33:14;;;;;;;47.70;26.93;;;;;;;3.93;100.00;102453.66;5018420;28;20319;-75
2022/01/19 07:35:39;;;;;;;50.33;27.27;;;;;;;3.65;100.00;102410.63;5017326;28;20209;-75
2022/01/19 07:38:05;;;;;;;38.40;27.00;;;;;;;4.29;100.00;102495.19;5019005;28;20200;-74
2022/01/19 07:40:30;;;;;;;41.40;26.80;;;;;;;3.18;100.00;102311.56;5016009;28;20181;-75
2022/01/19 07:42:56;;;;;;;42.97;27.17;;;;;;;4.22;100.00;102436.38;5016567;28;20192;-75
2022/01/19 07:45:21;;;;;;;41.97;27.73;;;;;;;3.67;100.00;102384.81;5017632;28;20181;-73
2022/01/19 07:47:46;;;;;;;44.17;26.63;;;;;;;4.32;100.00;102472.84;5018194;28;20177;-75
2022/01/19 07:50:12;;;;;;;45.03;28.67;;;;;;;3.74;100.00;102396.66;5017257;28;20195;-74
2022/01/19 07:52:38;;;;;;;42.03;27.97;;;;;;;3.14;100.00;102333.97;5018630;28;20192;-72
2022/01/19 07:55:03;;;;;;;49.20;28.70;;;;;;;4.03;100.00;102466.13;5017988;28;20203;-73
2022/01/19 07:57:29;;;;;;;44.07;28.13;;;;;;;2.08;100.00;102131.63;5016854;28;20283;-73
2022/01/19 07:59:54;;;;;;;46.77;28.50;;;;;;;3.35;100.00;102348.28;4994685;28;20303;-72
2022/01/19 08:02:19;;;;;;;50.47;29.33;;;;;;;3.48;100.00;102336.75;5017222;28;20188;-73
2022/01/19 08:04:45;;;;;;;42.73;26.67;;;;;;;3.80;100.00;102390.88;5016499;28;20853;-74
2022/01/19 08:07:11;;;;;;;44.87;29.10;;;;;;;2.57;100.00;102196.84;5018155;28;20215;-73
2022/01/19 08:09:37;;;;;;;48.37;30.40;;;;;;;3.53;100.00;102356.69;5018375;28;20185;-73
2022/01/19 08:12:04;;;;;;;46.43;28.30;;;;;;;3.23;100.00;102304.13;4998116;28;20449;-74
2022/01/19 08:14:30;;;;;;;45.73;29.27;;;;;;;3.66;100.00;102345.97;5017615;28;21955;-74
2022/01/19 08:16:56;;;;;;;46.90;28.23;;;;;;;3.95;100.00;102414.56;5014154;28;20973;-73
2022/01/19 08:19:22;;;;;;;45.10;28.23;;;;;;;4.09;100.00;102422.34;5017017;28;20211;-74
2022/01/19 08:21:47;;;;;;;51.33;30.70;;;;;;;4.15;100.00;102410.41;5017080;28;20427;-72
2022/01/19 08:24:13;;;;;;;51.97;30.00;;;;;;;4.14;100.00;102398.94;5015601;28;20189;-73
2022/01/19 08:26:39;;;;;;;44.00;29.47;;;;;;;3.89;100.00;102354.00;5017395;28;20465;-73
2022/01/19 08:29:05;;;;;;;52.57;29.80;;;;;;;3.75;100.00;102369.16;5014072;28;20515;-72
2022/01/19 08:31:31;;;;;;;54.03;30.00;;;;;;;3.75;100.00;102371.81;5016168;28;20185;-72
2022/01/19 08:33:56;;;;;;;50.37;33.00;;;;;;;3.13;100.00;102237.69;5015718;28;20427;-73
2022/01/19 08:36:21;;;;;;;51.50;31.70;;;;;;;3.98;100.00;102404.56;5016936;28;20209;-72
2022/01/19 08:38:47;;;;;;;53.30;32.43;;;;;;;3.29;100.00;102276.28;5017253;28;20299;-72
2022/01/19 08:41:12;;;;;;;55.13;33.50;;;;;;;3.63;100.00;102317.84;5017214;28;20592;-72
2022/01/19 08:43:38;;;;;;;50.03;32.03;;;;;;;3.32;100.00;102274.25;5016307;28;20193;-72
2022/01/19 08:46:03;;;;;;;45.17;29.90;;;;;;;3.30;100.00;102259.44;5016627;28;20236;-72
2022/01/19 08:48:29;;;;;;;57.30;34.63;;;;;;;3.27;100.00;102238.41;5017444;28;20653;-73
2022/01/19 08:50:54;;;;;;;53.27;30.60;;;;;;;3.20;100.00;102253.97;5018001;28;20239;-74
2022/01/19 08:53:20;;;;;;;55.60;30.70;;;;;;;2.24;100.00;102098.63;5016394;28;20234;-74
2022/01/19 08:55:46;;;;;;;53.23;32.73;;;;;;;3.95;100.00;102396.00;5013910;28;20209;-72
2022/01/19 08:58:13;;;;;;;47.63;30.17;;;;;;;3.04;100.00;102222.47;5016623;28;20528;-73
2022/01/19 09:00:43;;;;;;;45.07;31.00;;;;;;;3.71;100.00;102345.63;5016784;28;20187;-73
2022/01/19 09:03:09;;;;;;;47.97;30.13;;;;;;;3.28;100.00;102242.78;5014458;28;20473;-73
2022/01/19 09:05:34;;;;;;;43.97;28.40;;;;;;;3.29;100.00;102245.31;5016725;28;20447;-74
2022/01/19 09:08:00;;;;;;;52.40;30.17;;;;;;;3.79;100.00;102325.50;5017789;28;20182;-72
2022/01/19 09:10:26;;;;;;;44.90;29.80;;;;;;;4.02;100.00;102360.91;5017396;28;20193;-73
2022/01/19 09:12:51;;;;;;;39.13;28.83;;;;;;;3.85;100.00;102287.88;5017706;28;20603;-74
2022/01/19 09:15:18;;;;;;;41.57;27.77;;;;;;;3.33;100.00;102228.22;5017165;28;20180;-72
2022/01/19 09:17:44;;;;;;;38.30;25.73;;;;;;;2.98;100.00;102175.22;5014957;28;20213;-72
2022/01/19 09:20:11;;;;;;;41.27;25.37;;;;;;;3.89;100.00;102340.72;5016103;28;20424;-72
2022/01/19 09:22:37;;;;;;;45.00;26.27;;;;;;;3.41;100.00;102262.09;5014367;28;20439;-72
2022/01/19 09:25:04;;;;;;;39.27;26.47;;;;;;;3.84;100.00;102331.28;5015289;28;20420;-72
2022/01/19 09:27:43;;;;;;;37.90;24.60;;;;;;;3.72;100.00;102303.03;5038245;23;20498;-85
2022/01/19 09:30:17;;;;;;;38.37;24.37;;;;;;;3.77;100.00;102287.63;5041647;28;20434;-85
2022/01/19 09:32:56;;;;;;;39.27;25.10;;;;;;;3.46;100.00;102240.53;5042866;28;20426;-84
2022/01/19 09:35:26;;;;;;;40.40;24.13;;;;;;;3.73;100.00;102304.75;5025024;28;20553;-85
2022/01/19 09:37:52;;;;;;;35.70;24.53;;;;;;;3.44;100.00;102216.75;5025085;28;20471;-80
2022/01/19 09:40:18;;;;;;;40.00;25.73;;;;;;;3.49;100.00;102233.16;5048912;28;20426;-86
2022/01/19 09:42:50;;;;;;;41.87;26.90;;;;;;;3.43;100.00;102228.34;5029840;28;20461;-77
2022/01/19 09:45:19;;;;;;;44.80;27.07;;;;;;;3.68;100.00;102284.84;5046952;28;20223;-81
2022/01/19 09:47:46;;;;;;;44.20;26.30;;;;;;;3.73;100.00;102283.53;5047780;28;20511;-80
2022/01/19 09:50:11;;;;;;;50.43;30.27;;;;;;;2.93;100.00;102146.41;5042857;28;20941;-83
2022/01/19 09:52:38;;;;;;;44.13;28.57;;;;;;;2.68;100.00;102070.59;5042180;28;20910;-81
2022/01/19 09:55:04;;;;;;;50.53;28.60;;;;;;;2.24;100.00;101999.81;5044217;28;20179;-82
2022/01/19 09:57:33;;;;;;;41.47;28.47;;;;;;;3.63;100.00;102216.19;5045818;28;20480;-83
2022/01/19 10:00:07;;;;;;;46.50;28.50;;;;;;;3.83;100.00;102257.09;5044704;28;20418;-79
2022/01/19 10:02:36;;;;;;;52.47;31.00;;;;;;;3.63;100.00;102203.75;5043487;28;20914;-83
2022/01/19 10:05:08;;;;;;;48.13;28.33;;;;;;;3.93;100.00;102242.13;5045596;28;20438;-84
2022/01/19 10:07:34;;;;;;;44.07;30.13;;;;;;;3.98;100.00;102237.28;5044015;28;20973;-82
2022/01/19 10:10:07;;;;;;;48.37;27.43;;;;;;;3.96;100.00;102233.06;5027242;28;20446;-78
2022/01/19 10:18:30;;;;;;;44.07;26.47;;;;;;;3.79;100.00;102226.44;5044158;28;20991;-78
2022/01/19 10:21:13;;;;;;;42.47;28.23;;;;;;;3.82;100.00;102168.66;5044988;28;20418;-87
2022/01/19 10:23:50;;;;;;;45.73;28.37;;;;;;;3.97;100.00;102230.31;5020647;28;20434;-81
2022/01/19 10:26:28;;;;;;;38.30;25.80;;;;;;;3.61;100.00;102146.47;5040958;28;20985;-85
2022/01/19 10:29:00;;;;;;;36.83;25.77;;;;;;;3.95;100.00;102240.19;5027163;28;20918;-79
2022/01/19 10:31:30;;;;;;;41.43;28.20;;;;;;;3.87;100.00;102197.47;5042793;28;20418;-81
2022/01/19 10:34:22;;;;;;;45.30;28.17;;;;;;;3.69;100.00;102181.22;5042655;28;20955;-81
2022/01/19 10:36:57;;;;;;;42.97;27.77;;;;;;;4.00;100.00;102200.88;5045199;28;20552;-83
2022/01/19 10:39:48;;;;;;;40.97;26.20;;;;;;;3.95;100.00;102195.06;5027086;28;20465;-78
2022/01/19 10:42:37;;;;;;;50.03;28.67;;;;;;;3.55;100.00;102125.72;5044387;28;20422;-81
2022/01/19 10:45:21;;;;;;;38.30;25.70;;;;;;;3.90;100.00;102165.38;5026527;28;20442;-83
2022/01/19 10:47:58;;;;;;;39.20;26.27;;;;;;;3.98;100.00;102170.09;5043625;28;20445;-84
2022/01/19 10:50:31;;;;;;;42.50;27.10;;;;;;;1.78;100.00;101805.69;5043981;28;20430;-78
2022/01/19 10:53:00;;;;;;;40.60;27.70;;;;;;;3.52;100.00;102043.75;5044736;28;20426;-81
2022/01/19 10:55:27;;;;;;;42.97;27.90;;;;;;;2.98;100.00;101978.22;5043536;28;21053;-84
2022/01/19 10:57:54;;;;;;;41.00;25.50;;;;;;;4.01;100.00;102156.56;5027585;28;20462;-80
2022/01/19 11:00:36;;;;;;;38.30;26.00;;;;;;;4.19;100.00;102139.13;5044401;28;20936;-83
2022/01/19 11:03:23;;;;;;;42.73;27.43;;;;;;;4.23;100.00;102126.47;5027790;28;20441;-81
2022/01/19 11:05:51;;;;;;;41.53;26.53;;;;;;;4.02;100.00;102094.53;5045416;28;20421;-83
2022/01/19 11:08:19;;;;;;;37.53;26.07;;;;;;;3.00;100.00;101987.75;5044297;28;20422;-80
2022/01/19 11:10:49;;;;;;;44.10;27.60;;;;;;;4.02;100.00;102121.94;5042787;28;20471;-81
2022/01/19 11:13:31;;;;;;;40.40;26.50;;;;;;;4.23;100.00;102110.53;5024624;28;20838;-83
2022/01/19 11:15:59;;;;;;;39.93;27.10;;;;;;;4.13;100.00;102110.41;5026866;28;20861;-82
2022/01/19 11:18:26;;;;;;;40.20;29.30;;;;;;;3.46;100.00;101988.53;5027825;28;20970;-82
2022/01/19 11:20:56;;;;;;;42.30;28.07;;;;;;;3.94;100.00;102103.13;5033606;28;20429;-79
2022/01/19 11:24:00;;;;;;;41.00;28.17;;;;;;;4.07;100.00;102089.69;5044551;28;20450;-83
2022/01/19 11:26:30;;;;;;;41.70;28.47;;;;;;;4.06;100.00;102061.47;5043974;28;20540;-80
2022/01/19 11:29:20;;;;;;;38.37;27.47;;;;;;;4.24;100.00;102073.19;5028008;28;20429;-85
2022/01/19 11:31:47;;;;;;;48.27;30.73;;;;;;;3.68;100.00;102009.69;5039913;28;20435;-84
2022/01/19 11:34:13;;;;;;;45.67;28.97;;;;;;;3.77;100.00;102011.59;5029304;28;20513;-85
2022/01/19 11:36:42;;;;;;;46.23;29.70;;;;;;;3.63;100.00;101978.22;5026180;28;20525;-81
2022/01/19 11:39:20;;;;;;;53.20;31.83;;;;;;;2.97;100.00;101908.47;5032369;28;20966;-79
2022/01/19 11:41:55;;;;;;;43.50;31.93;;;;;;;4.15;100.00;102038.63;5047860;28;20764;-82
2022/01/19 11:44:33;;;;;;;50.30;30.77;;;;;;;4.04;100.00;102031.53;5029552;28;20448;-91
2022/01/19 11:47:21;;;;;;;44.80;31.57;;;;;;;4.22;100.00;102021.19;5030778;28;20478;-83
2022/01/19 11:49:58;;;;;;;42.40;30.90;;;;;;;3.82;100.00;101974.91;5047645;28;20791;-83
2022/01/19 11:52:31;;;;;;;44.10;31.30;;;;;;;4.18;100.00;101967.50;5029303;28;20500;-80
2022/01/19 11:55:17;;;;;;;45.93;31.50;;;;;;;4.39;100.00;102009.97;5046534;28;20421;-83
2022/01/19 11:57:45;;;;;;;53.47;30.83;;;;;;;4.25;100.00;101989.91;5029768;28;20559;-83
2022/01/19 12:00:18;;;;;;;50.67;30.50;;;;;;;4.49;100.00;102013.56;5048490;28;20430;-82
2022/01/19 12:02:58;;;;;;;51.73;32.57;;;;;;;4.41;100.00;102002.72;5046678;28;20492;-80
2022/01/19 12:05:24;;;;;;;58.07;31.10;;;;;;;4.45;100.00;101992.69;5047587;28;20414;-81
2022/01/19 12:07:57;;;;;;;50.07;32.50;;;;;;;4.64;100.00;101978.69;5025936;28;20525;-80
2022/01/19 12:10:45;;;;;;;45.37;30.97;;;;;;;4.14;100.00;101907.66;5045305;28;21017;-84
2022/01/19 12:19:27;;;;;;;48.23;31.07;;;;;;;4.41;100.00;101938.97;5045698;28;20463;-86
2022/01/19 12:22:00;;;;;;;52.63;32.93;;;;;;;4.32;100.00;101907.91;5048387;28;21081;-86
2022/01/19 12:24:54;;;;;;;47.23;32.83;;;;;;;4.53;100.00;101934.41;5031551;28;20441;-82
2022/01/19 12:27:20;;;;;;;57.57;34.10;;;;;;;4.57;100.00;101921.72;5026179;28;20458;-80
2022/01/19 12:30:07;;;;;;;52.90;33.70;;;;;;;4.50;100.00;101906.28;5047861;28;20422;-86
2022/01/19 12:32:34;;;;;;;53.83;32.93;;;;;;;4.53;100.00;101910.50;5029257;28;20655;-87
2022/01/19 12:35:23;;;;;;;55.77;34.00;;;;;;;4.48;100.00;101897.63;5031184;28;20438;-84
2022/01/19 12:38:01;;;;;;;50.50;33.83;;;;;;;4.51;100.00;101896.50;5048006;28;20458;-82
2022/01/19 12:40:40;;;;;;;52.20;34.63;;;;;;;4.68;100.00;101885.25;5048286;28;20643;-85
2022/01/19 12:43:28;;;;;;;54.47;33.13;;;;;;;4.38;100.00;101848.09;5046941;28;20434;-86
2022/01/19 12:45:54;;;;;;;51.20;33.00;;;;;;;4.66;100.00;101881.06;5029366;28;20487;-87
2022/01/19 12:48:50;;;;;;;56.50;33.30;;;;;;;4.63;100.00;101874.19;5027565;28;20422;-82
2022/01/19 12:51:35;;;;;;;52.87;34.00;;;;;;;4.67;100.00;101872.94;5030330;28;20514;-85
2022/01/19 12:54:01;;;;;;;52.00;34.33;;;;;;;4.68;100.00;101868.47;5051991;28;20426;-85